sensor_id;sensor_type;location;lat;lon;timestamp;temperature;humidity
37974;DHT22;23796;51.458;7.000;2023-11-19T00:02:25;11.50;99.90
37974;DHT22;23796;51.458;7.000;2023-11-19T00:04:50;11.60;99.90
37974;DHT22;23796;51.458;7.000;2023-11-19T00:07:16;11.60;99.90
37974;DHT22;23796;51.458;7.000;2023-11-19T00:09:42;11.60;99.90
37974;DHT22;23796;51.458;7.000;2023-11-19T00:12:09;11.60;99.90
37974;DHT22;23796;51.458;7.000;2023-11-19T00:14:34;11.70;99.90
37974;DHT22;23796;51.458;7.000;2023-11-19T00:17:02;11.70;99.90
37974;DHT22;23796;51.458;7.000;2023-11-19T00:19:29;11.70;99.90
37974;DHT22;23796;51.458;7.000;2023-11-19T00:21:55;11.80;99.90
37974;DHT22;23796;51.458;7.000;2023-11-19T00:24:20;11.80;99.90
37974;DHT22;23796;51.458;7.000;2023-11-19T00:26:46;11.80;99.90
37974;DHT22;23796;51.458;7.000;2023-11-19T00:29:12;11.90;99.90
37974;DHT22;23796;51.458;7.000;2023-11-19T00:31:41;11.90;99.90
37974;DHT22;23796;51.458;7.000;2023-11-19T00:34:07;11.90;99.90
37974;DHT22;23796;51.458;7.000;2023-11-19T00:36:32;11.90;99.90
37974;DHT22;23796;51.458;7.000;2023-11-19T00:38:58;12.00;99.90
37974;DHT22;23796;51.458;7.000;2023-11-19T00:41:24;12.00;99.90
37974;DHT22;23796;51.458;7.000;2023-11-19T00:43:50;12.00;99.90
37974;DHT22;23796;51.458;7.000;2023-11-19T00:46:16;12.00;99.90
37974;DHT22;23796;51.458;7.000;2023-11-19T00:48:42;12.00;99.90
37974;DHT22;23796;51.458;7.000;2023-11-19T00:51:07;12.00;99.90
37974;DHT22;23796;51.458;7.000;2023-11-19T00:53:35;12.00;99.90
37974;DHT22;23796;51.458;7.000;2023-11-19T00:56:03;12.10;99.90
37974;DHT22;23796;51.458;7.000;2023-11-19T00:58:32;12.10;99.90
37974;DHT22;23796;51.458;7.000;2023-11-19T01:00:58;12.10;99.90
37974;DHT22;23796;51.458;7.000;2023-11-19T01:03:25;12.20;99.90
37974;DHT22;23796;51.458;7.000;2023-11-19T01:05:51;12.20;99.90
37974;DHT22;23796;51.458;7.000;2023-11-19T01:08:17;12.20;99.90
37974;DHT22;23796;51.458;7.000;2023-11-19T01:10:44;12.20;99.90
37974;DHT22;23796;51.458;7.000;2023-11-19T01:13:09;12.30;99.90
37974;DHT22;23796;51.458;7.000;2023-11-19T01:15:35;12.30;99.90
37974;DHT22;23796;51.458;7.000;2023-11-19T01:18:01;12.30;99.90
37974;DHT22;23796;51.458;7.000;2023-11-19T01:20:30;12.30;99.90
37974;DHT22;23796;51.458;7.000;2023-11-19T01:22:55;12.30;99.90
37974;DHT22;23796;51.458;7.000;2023-11-19T01:25:21;12.30;99.90
37974;DHT22;23796;51.458;7.000;2023-11-19T01:27:47;12.40;99.90
37974;DHT22;23796;51.458;7.000;2023-11-19T01:30:13;12.40;99.90
37974;DHT22;23796;51.458;7.000;2023-11-19T01:32:39;12.40;99.90
37974;DHT22;23796;51.458;7.000;2023-11-19T01:35:08;12.40;99.90
37974;DHT22;23796;51.458;7.000;2023-11-19T01:37:34;12.40;99.90
37974;DHT22;23796;51.458;7.000;2023-11-19T01:40:03;12.40;99.90
37974;DHT22;23796;51.458;7.000;2023-11-19T01:42:36;12.50;99.90
37974;DHT22;23796;51.458;7.000;2023-11-19T01:45:03;12.50;99.90
37974;DHT22;23796;51.458;7.000;2023-11-19T01:47:32;12.50;99.90
37974;DHT22;23796;51.458;7.000;2023-11-19T01:50:01;12.60;99.90
37974;DHT22;23796;51.458;7.000;2023-11-19T01:52:29;12.60;99.90
37974;DHT22;23796;51.458;7.000;2023-11-19T01:54:54;12.60;99.90
37974;DHT22;23796;51.458;7.000;2023-11-19T01:57:22;12.60;99.90
37974;DHT22;23796;51.458;7.000;2023-11-19T01:59:50;12.60;99.90
37974;DHT22;23796;51.458;7.000;2023-11-19T02:02:18;12.60;99.90
37974;DHT22;23796;51.458;7.000;2023-11-19T02:04:51;12.60;99.90
37974;DHT22;23796;51.458;7.000;2023-11-19T02:07:18;12.70;99.90
37974;DHT22;23796;51.458;7.000;2023-11-19T02:09:44;12.70;99.90
37974;DHT22;23796;51.458;7.000;2023-11-19T02:12:10;12.70;99.90
37974;DHT22;23796;51.458;7.000;2023-11-19T02:14:38;12.70;99.90
37974;DHT22;23796;51.458;7.000;2023-11-19T02:17:04;12.80;99.90
37974;DHT22;23796;51.458;7.000;2023-11-19T02:19:32;12.70;99.90
37974;DHT22;23796;51.458;7.000;2023-11-19T02:21:57;12.80;99.90
37974;DHT22;23796;51.458;7.000;2023-11-19T02:24:26;12.80;99.90
37974;DHT22;23796;51.458;7.000;2023-11-19T02:27:00;12.80;99.90
37974;DHT22;23796;51.458;7.000;2023-11-19T02:29:27;12.80;99.90
37974;DHT22;23796;51.458;7.000;2023-11-19T02:31:53;12.80;99.90
37974;DHT22;23796;51.458;7.000;2023-11-19T02:34:20;12.70;99.90
37974;DHT22;23796;51.458;7.000;2023-11-19T02:36:47;12.80;99.90
37974;DHT22;23796;51.458;7.000;2023-11-19T02:39:13;12.80;99.90
37974;DHT22;23796;51.458;7.000;2023-11-19T02:41:39;12.80;99.90
37974;DHT22;23796;51.458;7.000;2023-11-19T02:44:07;12.80;99.90
37974;DHT22;23796;51.458;7.000;2023-11-19T02:46:35;12.80;99.90
37974;DHT22;23796;51.458;7.000;2023-11-19T02:49:00;12.90;99.90
37974;DHT22;23796;51.458;7.000;2023-11-19T02:51:26;12.90;99.90
37974;DHT22;23796;51.458;7.000;2023-11-19T02:53:53;12.90;99.90
37974;DHT22;23796;51.458;7.000;2023-11-19T02:56:18;12.90;99.90
37974;DHT22;23796;51.458;7.000;2023-11-19T02:58:55;12.90;99.90
37974;DHT22;23796;51.458;7.000;2023-11-19T03:01:24;12.90;99.90
37974;DHT22;23796;51.458;7.000;2023-11-19T03:04:00;12.90;99.90
37974;DHT22;23796;51.458;7.000;2023-11-19T03:06:26;12.90;99.90
37974;DHT22;23796;51.458;7.000;2023-11-19T03:08:55;12.90;99.90
37974;DHT22;23796;51.458;7.000;2023-11-19T03:11:20;13.00;99.90
37974;DHT22;23796;51.458;7.000;2023-11-19T03:13:46;13.00;99.90
37974;DHT22;23796;51.458;7.000;2023-11-19T03:16:12;13.00;99.90
37974;DHT22;23796;51.458;7.000;2023-11-19T03:18:38;13.00;99.90
37974;DHT22;23796;51.458;7.000;2023-11-19T03:21:06;13.00;99.90
37974;DHT22;23796;51.458;7.000;2023-11-19T03:23:31;13.00;99.90
37974;DHT22;23796;51.458;7.000;2023-11-19T03:25:57;13.00;99.90
37974;DHT22;23796;51.458;7.000;2023-11-19T03:28:22;13.00;99.90
37974;DHT22;23796;51.458;7.000;2023-11-19T03:30:50;13.00;99.90
37974;DHT22;23796;51.458;7.000;2023-11-19T03:33:16;13.00;99.90
37974;DHT22;23796;51.458;7.000;2023-11-19T03:35:41;12.80;99.90
37974;DHT22;23796;51.458;7.000;2023-11-19T03:38:07;12.70;99.90
37974;DHT22;23796;51.458;7.000;2023-11-19T03:40:32;12.50;99.90
37974;DHT22;23796;51.458;7.000;2023-11-19T03:42:58;12.40;99.90
37974;DHT22;23796;51.458;7.000;2023-11-19T03:45:24;12.40;99.90
37974;DHT22;23796;51.458;7.000;2023-11-19T03:47:50;12.40;99.90
37974;DHT22;23796;51.458;7.000;2023-11-19T03:50:17;12.30;99.90
37974;DHT22;23796;51.458;7.000;2023-11-19T03:52:43;12.30;99.90
37974;DHT22;23796;51.458;7.000;2023-11-19T03:55:09;12.20;99.90
37974;DHT22;23796;51.458;7.000;2023-11-19T03:57:35;12.20;99.90
37974;DHT22;23796;51.458;7.000;2023-11-19T04:00:01;12.10;99.90
37974;DHT22;23796;51.458;7.000;2023-11-19T04:02:33;12.00;99.90
37974;DHT22;23796;51.458;7.000;2023-11-19T04:04:59;12.00;99.90
37974;DHT22;23796;51.458;7.000;2023-11-19T04:07:24;11.90;99.90
37974;DHT22;23796;51.458;7.000;2023-11-19T04:09:50;11.90;99.90
37974;DHT22;23796;51.458;7.000;2023-11-19T04:12:16;11.80;99.90
37974;DHT22;23796;51.458;7.000;2023-11-19T04:14:42;11.80;99.90
37974;DHT22;23796;51.458;7.000;2023-11-19T04:17:07;11.80;99.90
37974;DHT22;23796;51.458;7.000;2023-11-19T04:19:35;11.80;99.90
37974;DHT22;23796;51.458;7.000;2023-11-19T04:22:01;11.80;99.90
37974;DHT22;23796;51.458;7.000;2023-11-19T04:24:27;11.80;99.90
37974;DHT22;23796;51.458;7.000;2023-11-19T04:26:53;11.80;99.90
37974;DHT22;23796;51.458;7.000;2023-11-19T04:29:19;11.80;99.90
37974;DHT22;23796;51.458;7.000;2023-11-19T04:31:46;11.70;99.90
37974;DHT22;23796;51.458;7.000;2023-11-19T04:34:12;11.80;99.90
37974;DHT22;23796;51.458;7.000;2023-11-19T04:36:40;11.90;99.90
37974;DHT22;23796;51.458;7.000;2023-11-19T04:39:08;11.90;99.90
37974;DHT22;23796;51.458;7.000;2023-11-19T04:41:56;11.90;99.90
37974;DHT22;23796;51.458;7.000;2023-11-19T04:44:21;11.90;99.90
37974;DHT22;23796;51.458;7.000;2023-11-19T04:46:47;11.90;99.90
37974;DHT22;23796;51.458;7.000;2023-11-19T04:49:15;11.90;99.90
37974;DHT22;23796;51.458;7.000;2023-11-19T04:51:42;11.90;99.90
37974;DHT22;23796;51.458;7.000;2023-11-19T04:54:12;12.00;99.90
37974;DHT22;23796;51.458;7.000;2023-11-19T04:56:38;12.20;99.90
37974;DHT22;23796;51.458;7.000;2023-11-19T04:59:07;12.20;99.90
37974;DHT22;23796;51.458;7.000;2023-11-19T05:01:34;12.20;99.90
37974;DHT22;23796;51.458;7.000;2023-11-19T05:04:00;12.10;99.90
37974;DHT22;23796;51.458;7.000;2023-11-19T05:06:29;12.10;99.90
37974;DHT22;23796;51.458;7.000;2023-11-19T05:08:56;12.20;99.90
37974;DHT22;23796;51.458;7.000;2023-11-19T05:11:22;12.30;99.90
37974;DHT22;23796;51.458;7.000;2023-11-19T05:13:48;12.40;99.90
37974;DHT22;23796;51.458;7.000;2023-11-19T05:16:13;12.40;99.90
37974;DHT22;23796;51.458;7.000;2023-11-19T05:18:42;12.40;99.90
37974;DHT22;23796;51.458;7.000;2023-11-19T05:21:07;12.20;99.90
37974;DHT22;23796;51.458;7.000;2023-11-19T05:23:33;12.20;99.90
37974;DHT22;23796;51.458;7.000;2023-11-19T05:26:02;12.30;99.90
37974;DHT22;23796;51.458;7.000;2023-11-19T05:28:27;12.40;99.90
37974;DHT22;23796;51.458;7.000;2023-11-19T05:30:56;12.30;99.90
37974;DHT22;23796;51.458;7.000;2023-11-19T05:33:21;12.30;99.90
37974;DHT22;23796;51.458;7.000;2023-11-19T05:35:47;12.40;99.90
37974;DHT22;23796;51.458;7.000;2023-11-19T05:38:13;12.50;99.90
37974;DHT22;23796;51.458;7.000;2023-11-19T05:40:38;12.60;99.90
37974;DHT22;23796;51.458;7.000;2023-11-19T05:43:04;12.60;99.90
37974;DHT22;23796;51.458;7.000;2023-11-19T05:45:31;12.60;99.90
37974;DHT22;23796;51.458;7.000;2023-11-19T05:47:57;12.70;99.90
37974;DHT22;23796;51.458;7.000;2023-11-19T05:50:23;12.70;99.90
37974;DHT22;23796;51.458;7.000;2023-11-19T05:52:48;12.70;99.90
37974;DHT22;23796;51.458;7.000;2023-11-19T05:55:14;12.70;99.90
37974;DHT22;23796;51.458;7.000;2023-11-19T05:57:42;12.60;99.90
37974;DHT22;23796;51.458;7.000;2023-11-19T06:00:08;12.40;99.90
37974;DHT22;23796;51.458;7.000;2023-11-19T06:02:36;12.30;99.90
37974;DHT22;23796;51.458;7.000;2023-11-19T06:05:04;12.30;99.90
37974;DHT22;23796;51.458;7.000;2023-11-19T06:07:31;12.40;99.90
37974;DHT22;23796;51.458;7.000;2023-11-19T06:09:57;12.40;99.90
37974;DHT22;23796;51.458;7.000;2023-11-19T06:12:25;12.40;99.90
37974;DHT22;23796;51.458;7.000;2023-11-19T06:14:52;12.40;99.90
37974;DHT22;23796;51.458;7.000;2023-11-19T06:17:18;12.30;99.90
37974;DHT22;23796;51.458;7.000;2023-11-19T06:19:44;12.20;99.90
37974;DHT22;23796;51.458;7.000;2023-11-19T06:22:10;12.10;99.90
37974;DHT22;23796;51.458;7.000;2023-11-19T06:24:36;12.10;99.90
37974;DHT22;23796;51.458;7.000;2023-11-19T06:27:04;12.10;99.90
37974;DHT22;23796;51.458;7.000;2023-11-19T06:29:30;12.20;99.90
37974;DHT22;23796;51.458;7.000;2023-11-19T06:31:55;12.30;99.90
37974;DHT22;23796;51.458;7.000;2023-11-19T06:34:21;12.20;99.90
37974;DHT22;23796;51.458;7.000;2023-11-19T06:36:46;12.20;99.90
37974;DHT22;23796;51.458;7.000;2023-11-19T06:39:13;12.30;99.90
37974;DHT22;23796;51.458;7.000;2023-11-19T06:41:45;12.30;99.90
37974;DHT22;23796;51.458;7.000;2023-11-19T06:44:11;12.20;99.90
37974;DHT22;23796;51.458;7.000;2023-11-19T06:46:37;12.20;99.90
37974;DHT22;23796;51.458;7.000;2023-11-19T06:49:03;12.20;99.90
37974;DHT22;23796;51.458;7.000;2023-11-19T06:51:28;12.20;99.90
37974;DHT22;23796;51.458;7.000;2023-11-19T06:53:57;12.10;99.90
37974;DHT22;23796;51.458;7.000;2023-11-19T06:56:23;12.10;99.90
37974;DHT22;23796;51.458;7.000;2023-11-19T06:58:52;12.00;99.90
37974;DHT22;23796;51.458;7.000;2023-11-19T07:01:19;11.90;99.90
37974;DHT22;23796;51.458;7.000;2023-11-19T07:03:48;11.90;99.90
37974;DHT22;23796;51.458;7.000;2023-11-19T07:06:14;11.90;99.90
37974;DHT22;23796;51.458;7.000;2023-11-19T07:08:41;11.80;99.90
37974;DHT22;23796;51.458;7.000;2023-11-19T07:11:07;11.80;99.90
37974;DHT22;23796;51.458;7.000;2023-11-19T07:13:35;11.80;99.90
37974;DHT22;23796;51.458;7.000;2023-11-19T07:16:01;11.80;99.90
37974;DHT22;23796;51.458;7.000;2023-11-19T07:18:26;11.80;99.90
37974;DHT22;23796;51.458;7.000;2023-11-19T07:20:54;11.80;99.90
37974;DHT22;23796;51.458;7.000;2023-11-19T07:23:20;11.70;99.90
37974;DHT22;23796;51.458;7.000;2023-11-19T07:25:47;11.70;99.90
37974;DHT22;23796;51.458;7.000;2023-11-19T07:28:13;11.60;99.90
37974;DHT22;23796;51.458;7.000;2023-11-19T07:30:38;11.60;99.90
37974;DHT22;23796;51.458;7.000;2023-11-19T07:33:04;11.50;99.90
37974;DHT22;23796;51.458;7.000;2023-11-19T07:35:31;11.50;99.90
37974;DHT22;23796;51.458;7.000;2023-11-19T07:37:59;11.40;99.90
37974;DHT22;23796;51.458;7.000;2023-11-19T07:40:25;11.40;99.90
37974;DHT22;23796;51.458;7.000;2023-11-19T07:42:50;11.40;99.90
37974;DHT22;23796;51.458;7.000;2023-11-19T07:45:17;11.40;99.90
37974;DHT22;23796;51.458;7.000;2023-11-19T07:47:45;11.40;99.90
37974;DHT22;23796;51.458;7.000;2023-11-19T07:50:11;11.40;99.90
37974;DHT22;23796;51.458;7.000;2023-11-19T07:52:39;11.40;99.90
37974;DHT22;23796;51.458;7.000;2023-11-19T07:55:05;11.40;99.90
37974;DHT22;23796;51.458;7.000;2023-11-19T07:57:31;11.40;99.90
37974;DHT22;23796;51.458;7.000;2023-11-19T08:00:00;11.40;99.90
37974;DHT22;23796;51.458;7.000;2023-11-19T08:02:26;11.40;99.90
37974;DHT22;23796;51.458;7.000;2023-11-19T08:04:52;11.40;99.90
37974;DHT22;23796;51.458;7.000;2023-11-19T08:07:20;11.40;99.90
37974;DHT22;23796;51.458;7.000;2023-11-19T08:09:46;11.40;99.90
37974;DHT22;23796;51.458;7.000;2023-11-19T08:12:12;11.40;99.90
37974;DHT22;23796;51.458;7.000;2023-11-19T08:14:39;11.50;99.90
37974;DHT22;23796;51.458;7.000;2023-11-19T08:17:05;11.50;99.90
37974;DHT22;23796;51.458;7.000;2023-11-19T08:19:31;11.50;99.90
37974;DHT22;23796;51.458;7.000;2023-11-19T08:21:59;11.50;99.90
37974;DHT22;23796;51.458;7.000;2023-11-19T08:24:24;11.60;99.90
37974;DHT22;23796;51.458;7.000;2023-11-19T08:26:53;11.60;99.90
37974;DHT22;23796;51.458;7.000;2023-11-19T08:29:19;11.60;99.90
37974;DHT22;23796;51.458;7.000;2023-11-19T08:31:45;11.70;99.90
37974;DHT22;23796;51.458;7.000;2023-11-19T08:34:12;11.70;99.90
37974;DHT22;23796;51.458;7.000;2023-11-19T08:36:41;11.70;99.90
37974;DHT22;23796;51.458;7.000;2023-11-19T08:39:06;11.80;99.90
37974;DHT22;23796;51.458;7.000;2023-11-19T08:41:34;11.90;99.90
37974;DHT22;23796;51.458;7.000;2023-11-19T08:44:03;12.10;99.90
37974;DHT22;23796;51.458;7.000;2023-11-19T08:46:29;12.30;99.90
37974;DHT22;23796;51.458;7.000;2023-11-19T08:48:54;12.30;99.90
37974;DHT22;23796;51.458;7.000;2023-11-19T08:51:23;12.20;99.90
37974;DHT22;23796;51.458;7.000;2023-11-19T08:53:50;12.00;99.90
37974;DHT22;23796;51.458;7.000;2023-11-19T08:56:18;12.10;99.90
37974;DHT22;23796;51.458;7.000;2023-11-19T08:58:43;12.10;99.90
37974;DHT22;23796;51.458;7.000;2023-11-19T09:01:09;12.10;99.90
37974;DHT22;23796;51.458;7.000;2023-11-19T09:03:35;12.20;99.90
37974;DHT22;23796;51.458;7.000;2023-11-19T09:06:02;12.10;99.90
37974;DHT22;23796;51.458;7.000;2023-11-19T09:08:30;12.10;99.90
37974;DHT22;23796;51.458;7.000;2023-11-19T09:10:55;12.00;99.90
37974;DHT22;23796;51.458;7.000;2023-11-19T09:13:21;12.00;99.90
37974;DHT22;23796;51.458;7.000;2023-11-19T09:15:47;12.20;99.90
37974;DHT22;23796;51.458;7.000;2023-11-19T09:18:12;12.30;99.90
37974;DHT22;23796;51.458;7.000;2023-11-19T09:20:38;12.40;99.90
37974;DHT22;23796;51.458;7.000;2023-11-19T09:23:05;12.60;99.90
37974;DHT22;23796;51.458;7.000;2023-11-19T09:25:31;12.50;99.90
37974;DHT22;23796;51.458;7.000;2023-11-19T09:27:59;12.70;99.60
37974;DHT22;23796;51.458;7.000;2023-11-19T09:30:24;12.70;99.10
37974;DHT22;23796;51.458;7.000;2023-11-19T09:32:50;12.80;99.30
37974;DHT22;23796;51.458;7.000;2023-11-19T09:35:18;12.80;99.00
37974;DHT22;23796;51.458;7.000;2023-11-19T09:37:46;12.80;99.10
37974;DHT22;23796;51.458;7.000;2023-11-19T09:40:11;13.00;98.80
37974;DHT22;23796;51.458;7.000;2023-11-19T09:42:44;13.20;98.40
37974;DHT22;23796;51.458;7.000;2023-11-19T09:45:14;13.20;98.10
37974;DHT22;23796;51.458;7.000;2023-11-19T09:47:43;13.30;97.80
37974;DHT22;23796;51.458;7.000;2023-11-19T09:50:18;13.30;97.40
37974;DHT22;23796;51.458;7.000;2023-11-19T09:52:45;13.40;97.20
37974;DHT22;23796;51.458;7.000;2023-11-19T09:55:11;13.20;97.20
37974;DHT22;23796;51.458;7.000;2023-11-19T09:57:39;13.00;97.70
37974;DHT22;23796;51.458;7.000;2023-11-19T10:00:07;12.90;98.00
37974;DHT22;23796;51.458;7.000;2023-11-19T10:02:34;13.00;97.90
37974;DHT22;23796;51.458;7.000;2023-11-19T10:05:06;13.30;97.20
37974;DHT22;23796;51.458;7.000;2023-11-19T10:07:35;13.40;96.10
37974;DHT22;23796;51.458;7.000;2023-11-19T10:10:01;13.30;96.80
37974;DHT22;23796;51.458;7.000;2023-11-19T10:12:29;13.30;96.70
37974;DHT22;23796;51.458;7.000;2023-11-19T10:14:59;13.40;96.20
37974;DHT22;23796;51.458;7.000;2023-11-19T10:17:42;13.50;95.90
37974;DHT22;23796;51.458;7.000;2023-11-19T10:20:08;13.50;95.70
37974;DHT22;23796;51.458;7.000;2023-11-19T10:22:37;13.60;95.50
37974;DHT22;23796;51.458;7.000;2023-11-19T10:25:02;13.60;94.70
37974;DHT22;23796;51.458;7.000;2023-11-19T10:27:28;13.60;94.70
37974;DHT22;23796;51.458;7.000;2023-11-19T10:29:54;13.60;94.50
37974;DHT22;23796;51.458;7.000;2023-11-19T10:32:19;13.50;94.30
37974;DHT22;23796;51.458;7.000;2023-11-19T10:34:45;13.50;94.70
37974;DHT22;23796;51.458;7.000;2023-11-19T10:37:29;13.50;94.70
37974;DHT22;23796;51.458;7.000;2023-11-19T10:39:58;13.60;94.30
37974;DHT22;23796;51.458;7.000;2023-11-19T10:42:23;13.60;93.50
37974;DHT22;23796;51.458;7.000;2023-11-19T10:44:49;13.60;94.20
37974;DHT22;23796;51.458;7.000;2023-11-19T10:47:15;13.60;94.50
37974;DHT22;23796;51.458;7.000;2023-11-19T10:49:44;13.80;94.10
37974;DHT22;23796;51.458;7.000;2023-11-19T10:52:15;13.90;93.70
37974;DHT22;23796;51.458;7.000;2023-11-19T10:54:44;13.80;93.20
37974;DHT22;23796;51.458;7.000;2023-11-19T10:57:12;13.80;93.00
37974;DHT22;23796;51.458;7.000;2023-11-19T10:59:39;13.80;93.30
37974;DHT22;23796;51.458;7.000;2023-11-19T11:02:10;14.00;93.00
37974;DHT22;23796;51.458;7.000;2023-11-19T11:04:42;14.00;93.10
37974;DHT22;23796;51.458;7.000;2023-11-19T11:07:11;13.90;92.70
37974;DHT22;23796;51.458;7.000;2023-11-19T11:09:38;14.10;92.90
37974;DHT22;23796;51.458;7.000;2023-11-19T11:12:08;14.20;92.60
37974;DHT22;23796;51.458;7.000;2023-11-19T11:14:37;14.10;92.20
37974;DHT22;23796;51.458;7.000;2023-11-19T11:17:06;14.20;92.00
37974;DHT22;23796;51.458;7.000;2023-11-19T11:19:36;14.20;91.60
37974;DHT22;23796;51.458;7.000;2023-11-19T11:22:06;14.20;91.90
37974;DHT22;23796;51.458;7.000;2023-11-19T11:30:07;14.10;91.80
37974;DHT22;23796;51.458;7.000;2023-11-19T11:32:50;14.10;91.30
37974;DHT22;23796;51.458;7.000;2023-11-19T11:38:09;14.00;91.00
37974;DHT22;23796;51.458;7.000;2023-11-19T11:40:35;14.20;90.80
37974;DHT22;23796;51.458;7.000;2023-11-19T11:43:02;14.00;90.60
37974;DHT22;23796;51.458;7.000;2023-11-19T11:45:39;14.00;90.90
37974;DHT22;23796;51.458;7.000;2023-11-19T11:48:18;14.20;90.80
37974;DHT22;23796;51.458;7.000;2023-11-19T11:50:50;14.20;90.30
37974;DHT22;23796;51.458;7.000;2023-11-19T11:53:21;14.20;90.50
37974;DHT22;23796;51.458;7.000;2023-11-19T11:58:20;14.10;90.60
37974;DHT22;23796;51.458;7.000;2023-11-19T12:00:47;14.10;89.90
37974;DHT22;23796;51.458;7.000;2023-11-19T12:03:14;14.10;90.20
37974;DHT22;23796;51.458;7.000;2023-11-19T12:05:47;14.00;90.40
37974;DHT22;23796;51.458;7.000;2023-11-19T12:08:14;13.80;90.50
37974;DHT22;23796;51.458;7.000;2023-11-19T12:10:49;13.80;90.60
37974;DHT22;23796;51.458;7.000;2023-11-19T12:13:16;13.90;90.50
37974;DHT22;23796;51.458;7.000;2023-11-19T12:18:23;14.10;90.20
37974;DHT22;23796;51.458;7.000;2023-11-19T12:20:50;14.00;90.30
37974;DHT22;23796;51.458;7.000;2023-11-19T12:23:15;14.00;90.20
37974;DHT22;23796;51.458;7.000;2023-11-19T12:25:41;14.10;89.40
37974;DHT22;23796;51.458;7.000;2023-11-19T12:28:12;14.00;90.00
37974;DHT22;23796;51.458;7.000;2023-11-19T12:30:38;14.00;89.80
37974;DHT22;23796;51.458;7.000;2023-11-19T12:33:13;14.10;89.80
37974;DHT22;23796;51.458;7.000;2023-11-19T12:35:48;14.10;89.50
37974;DHT22;23796;51.458;7.000;2023-11-19T12:38:23;14.00;89.90
37974;DHT22;23796;51.458;7.000;2023-11-19T12:41:05;13.90;89.70
37974;DHT22;23796;51.458;7.000;2023-11-19T12:43:31;14.10;90.10
37974;DHT22;23796;51.458;7.000;2023-11-19T12:45:59;14.20;89.80
37974;DHT22;23796;51.458;7.000;2023-11-19T12:48:24;14.10;90.20
37974;DHT22;23796;51.458;7.000;2023-11-19T12:51:00;14.10;90.70
37974;DHT22;23796;51.458;7.000;2023-11-19T12:53:27;14.00;93.40
37974;DHT22;23796;51.458;7.000;2023-11-19T12:55:55;13.90;94.60
37974;DHT22;23796;51.458;7.000;2023-11-19T12:58:31;13.80;95.00
37974;DHT22;23796;51.458;7.000;2023-11-19T13:01:01;13.60;96.00
37974;DHT22;23796;51.458;7.000;2023-11-19T13:03:37;13.50;96.00
37974;DHT22;23796;51.458;7.000;2023-11-19T13:08:41;13.50;95.70
37974;DHT22;23796;51.458;7.000;2023-11-19T13:11:10;13.50;96.20
37974;DHT22;23796;51.458;7.000;2023-11-19T13:13:56;13.40;96.40
37974;DHT22;23796;51.458;7.000;2023-11-19T13:16:21;13.30;94.50
37974;DHT22;23796;51.458;7.000;2023-11-19T13:18:47;13.30;94.10
37974;DHT22;23796;51.458;7.000;2023-11-19T13:21:13;13.40;93.80
37974;DHT22;23796;51.458;7.000;2023-11-19T13:23:38;13.40;93.70
37974;DHT22;23796;51.458;7.000;2023-11-19T13:26:06;13.40;94.10
37974;DHT22;23796;51.458;7.000;2023-11-19T13:28:32;13.30;95.00
37974;DHT22;23796;51.458;7.000;2023-11-19T13:30:58;13.40;95.20
37974;DHT22;23796;51.458;7.000;2023-11-19T13:33:24;13.50;95.20
37974;DHT22;23796;51.458;7.000;2023-11-19T13:35:49;13.40;95.50
37974;DHT22;23796;51.458;7.000;2023-11-19T13:38:15;13.30;95.80
37974;DHT22;23796;51.458;7.000;2023-11-19T13:40:40;13.20;96.60
37974;DHT22;23796;51.458;7.000;2023-11-19T13:43:06;13.10;97.50
37974;DHT22;23796;51.458;7.000;2023-11-19T13:45:32;13.20;97.60
37974;DHT22;23796;51.458;7.000;2023-11-19T13:47:58;13.30;97.40
37974;DHT22;23796;51.458;7.000;2023-11-19T13:50:23;13.20;97.40
37974;DHT22;23796;51.458;7.000;2023-11-19T13:52:49;13.00;97.90
37974;DHT22;23796;51.458;7.000;2023-11-19T13:55:15;12.90;98.20
37974;DHT22;23796;51.458;7.000;2023-11-19T13:57:43;12.90;98.50
37974;DHT22;23796;51.458;7.000;2023-11-19T14:00:10;12.80;98.70
37974;DHT22;23796;51.458;7.000;2023-11-19T14:02:42;12.80;98.80
37974;DHT22;23796;51.458;7.000;2023-11-19T14:05:09;12.80;98.70
37974;DHT22;23796;51.458;7.000;2023-11-19T14:07:36;12.80;98.50
37974;DHT22;23796;51.458;7.000;2023-11-19T14:10:02;12.80;98.20
37974;DHT22;23796;51.458;7.000;2023-11-19T14:12:31;12.80;98.10
37974;DHT22;23796;51.458;7.000;2023-11-19T14:14:57;12.80;98.10
37974;DHT22;23796;51.458;7.000;2023-11-19T14:17:26;12.90;97.90
37974;DHT22;23796;51.458;7.000;2023-11-19T14:19:52;12.90;98.10
37974;DHT22;23796;51.458;7.000;2023-11-19T14:22:17;13.00;97.60
37974;DHT22;23796;51.458;7.000;2023-11-19T14:24:43;13.10;98.00
37974;DHT22;23796;51.458;7.000;2023-11-19T14:27:10;13.00;98.80
37974;DHT22;23796;51.458;7.000;2023-11-19T14:29:36;12.90;99.50
37974;DHT22;23796;51.458;7.000;2023-11-19T14:32:02;12.90;99.90
37974;DHT22;23796;51.458;7.000;2023-11-19T14:34:30;13.00;99.90
37974;DHT22;23796;51.458;7.000;2023-11-19T14:36:56;13.00;99.80
37974;DHT22;23796;51.458;7.000;2023-11-19T14:39:21;12.90;99.90
37974;DHT22;23796;51.458;7.000;2023-11-19T14:41:47;12.90;99.90
37974;DHT22;23796;51.458;7.000;2023-11-19T14:44:16;12.90;99.90
37974;DHT22;23796;51.458;7.000;2023-11-19T14:46:42;12.90;99.90
37974;DHT22;23796;51.458;7.000;2023-11-19T14:49:08;12.80;99.90
37974;DHT22;23796;51.458;7.000;2023-11-19T14:51:38;12.70;99.90
37974;DHT22;23796;51.458;7.000;2023-11-19T14:54:04;12.80;99.90
37974;DHT22;23796;51.458;7.000;2023-11-19T14:56:32;12.70;99.90
37974;DHT22;23796;51.458;7.000;2023-11-19T14:58:58;12.70;99.90
37974;DHT22;23796;51.458;7.000;2023-11-19T15:01:24;12.60;99.90
37974;DHT22;23796;51.458;7.000;2023-11-19T15:03:50;12.60;99.90
37974;DHT22;23796;51.458;7.000;2023-11-19T15:06:16;12.60;99.90
37974;DHT22;23796;51.458;7.000;2023-11-19T15:08:42;12.50;99.90
37974;DHT22;23796;51.458;7.000;2023-11-19T15:11:08;12.40;99.90
37974;DHT22;23796;51.458;7.000;2023-11-19T15:13:36;12.40;99.90
37974;DHT22;23796;51.458;7.000;2023-11-19T15:16:04;12.30;99.90
37974;DHT22;23796;51.458;7.000;2023-11-19T15:18:34;12.20;99.90
37974;DHT22;23796;51.458;7.000;2023-11-19T15:21:03;12.20;99.90
37974;DHT22;23796;51.458;7.000;2023-11-19T15:23:29;12.20;99.90
37974;DHT22;23796;51.458;7.000;2023-11-19T15:25:55;12.20;99.90
37974;DHT22;23796;51.458;7.000;2023-11-19T15:28:20;12.20;99.90
37974;DHT22;23796;51.458;7.000;2023-11-19T15:30:47;12.20;99.90
37974;DHT22;23796;51.458;7.000;2023-11-19T15:33:14;12.20;99.90
37974;DHT22;23796;51.458;7.000;2023-11-19T15:35:40;12.20;99.90
37974;DHT22;23796;51.458;7.000;2023-11-19T15:38:06;12.30;99.90
37974;DHT22;23796;51.458;7.000;2023-11-19T15:40:35;12.30;99.90
37974;DHT22;23796;51.458;7.000;2023-11-19T15:43:01;12.20;99.90
37974;DHT22;23796;51.458;7.000;2023-11-19T15:45:27;12.10;99.90
37974;DHT22;23796;51.458;7.000;2023-11-19T15:47:53;12.00;99.90